Time;durP1;ratioP1;P1;durP2;ratioP2;P2;SDS_P1;SDS_P2;PMS_P1;PMS_P2;Temp;Humidity;BMP_temperature;BMP_pressure;BME280_temperature;BME280_humidity;BME280_pressure;Samples;Min_cycle;Max_cycle;Signal;HPM_P1;HPM_P2
2023/10/18 00:03:30;;;;;;;44.30;24.40;;;;;;;4.88;86.06;100934.88;106507;1254;96624;-81
2023/10/18 00:06:15;;;;;;;47.00;25.80;;;;;;;4.85;86.14;100927.06;106551;1259;101925;-81
2023/10/18 00:09:38;;;;;;;43.30;25.20;;;;;;;4.82;86.00;100925.02;106599;1254;99126;-82
2023/10/18 00:12:07;;;;;;;43.20;25.60;;;;;;;4.80;86.25;100918.41;106405;1255;97790;-82
2023/10/18 00:14:52;;;;;;;45.20;24.40;;;;;;;4.79;86.34;100919.08;106405;1255;96612;-80
2023/10/18 00:17:39;;;;;;;47.70;25.00;;;;;;;4.77;86.28;100923.48;106066;1254;97099;-81
2023/10/18 00:20:26;;;;;;;41.00;25.10;;;;;;;4.76;86.35;100921.18;106593;1260;101383;-82
2023/10/18 00:23:15;;;;;;;46.30;25.30;;;;;;;4.74;86.43;100921.20;106234;1263;100456;-80
2023/10/18 00:26:05;;;;;;;43.20;24.70;;;;;;;4.72;86.43;100919.56;106603;1254;97727;-81
2023/10/18 00:28:50;;;;;;;44.00;25.60;;;;;;;4.70;86.65;100920.59;106365;1254;96661;-81
2023/10/18 00:31:36;;;;;;;38.80;23.40;;;;;;;4.69;86.49;100920.55;106349;1257;97156;-81
2023/10/18 00:34:22;;;;;;;43.10;24.10;;;;;;;4.67;86.53;100918.76;106542;1254;100069;-81
2023/10/18 00:37:07;;;;;;;43.00;22.90;;;;;;;4.65;86.66;100920.05;106596;1260;100505;-82
2023/10/18 00:39:53;;;;;;;42.40;24.20;;;;;;;4.62;86.30;100919.23;106470;1257;97716;-84
2023/10/18 00:42:38;;;;;;;39.00;22.80;;;;;;;4.59;86.29;100914.02;106256;1269;96533;-82
2023/10/18 00:45:24;;;;;;;43.30;23.80;;;;;;;4.57;86.24;100911.77;106277;1254;97504;-80
2023/10/18 00:48:11;;;;;;;39.50;23.30;;;;;;;4.54;86.56;100910.11;106314;1254;100094;-81
2023/10/18 00:50:58;;;;;;;39.90;22.60;;;;;;;4.52;86.45;100906.02;106483;1254;100140;-80
2023/10/18 00:53:47;;;;;;;40.20;23.10;;;;;;;4.50;86.53;100905.13;106484;1260;98250;-81
2023/10/18 00:56:34;;;;;;;38.10;22.90;;;;;;;4.48;86.90;100905.68;106185;1256;96616;-81
2023/10/18 00:59:24;;;;;;;39.40;24.10;;;;;;;4.46;87.07;100904.45;106402;1254;98015;-82
2023/10/18 01:02:11;;;;;;;43.90;24.80;;;;;;;4.44;87.01;100903.18;106525;1261;100092;-82
2023/10/18 01:04:56;;;;;;;39.30;23.50;;;;;;;4.42;87.04;100898.46;106432;1260;100620;-81
2023/10/18 01:07:42;;;;;;;42.90;24.90;;;;;;;4.41;87.43;100896.13;106557;1260;97900;-81
2023/10/18 01:10:30;;;;;;;41.50;24.40;;;;;;;4.37;87.72;100892.55;106352;1260;97519;-81
2023/10/18 01:13:18;;;;;;;40.90;23.10;;;;;;;4.34;87.98;100896.91;106550;1254;97398;-81
2023/10/18 01:16:21;;;;;;;40.20;24.30;;;;;;;4.32;88.18;100897.78;106765;1260;100027;-81
2023/10/18 01:19:08;;;;;;;44.60;23.20;;;;;;;4.32;88.35;100888.27;106379;1254;99283;-82
2023/10/18 01:21:54;;;;;;;43.70;23.10;;;;;;;4.32;88.18;100883.09;106702;1255;97778;-81
2023/10/18 01:24:40;;;;;;;43.90;24.70;;;;;;;4.33;88.27;100876.37;106287;1262;97020;-80
2023/10/18 01:27:26;;;;;;;41.00;24.70;;;;;;;4.33;88.31;100876.51;106280;1254;97140;-80
2023/10/18 01:30:15;;;;;;;41.20;23.70;;;;;;;4.33;88.42;100877.73;106273;1262;100063;-81
2023/10/18 01:33:35;;;;;;;44.10;24.30;;;;;;;4.33;88.44;100881.27;106498;1254;100357;-80
2023/10/18 01:36:14;;;;;;;43.40;23.90;;;;;;;4.33;88.67;100883.56;106398;1254;99200;-82
2023/10/18 01:39:00;;;;;;;39.00;23.00;;;;;;;4.32;88.62;100879.77;106560;1259;96591;-81
2023/10/18 01:41:47;;;;;;;42.70;24.20;;;;;;;4.30;88.76;100878.18;106482;1254;97101;-81
2023/10/18 01:44:33;;;;;;;38.60;23.80;;;;;;;4.29;88.91;100883.07;106574;1254;100709;-81
2023/10/18 01:47:20;;;;;;;38.90;22.30;;;;;;;4.28;88.76;100881.19;106446;1254;100345;-81
2023/10/18 01:50:08;;;;;;;39.80;24.20;;;;;;;4.26;88.69;100878.73;106438;1257;97785;-81
2023/10/18 01:52:53;;;;;;;43.10;23.50;;;;;;;4.23;88.84;100878.83;106161;1254;96843;-82
2023/10/18 01:55:38;;;;;;;44.60;23.70;;;;;;;4.22;88.94;100876.81;106436;1254;96648;-81
2023/10/18 01:58:29;;;;;;;41.70;23.50;;;;;;;4.23;88.87;100876.59;106502;1261;99983;-81
2023/10/18 02:01:16;;;;;;;40.50;23.40;;;;;;;4.22;88.97;100880.39;106184;1263;99172;-81
2023/10/18 02:04:03;;;;;;;36.90;22.80;;;;;;;4.21;88.92;100880.08;106317;1255;97789;-81
2023/10/18 02:06:57;;;;;;;37.00;23.30;;;;;;;4.20;89.02;100879.70;106692;1260;96576;-82
2023/10/18 02:09:49;;;;;;;35.80;22.60;;;;;;;4.16;89.19;100881.42;106601;1255;97150;-81
2023/10/18 02:12:36;;;;;;;38.80;22.40;;;;;;;4.15;89.33;100878.48;106693;1254;101651;-81
2023/10/18 02:15:24;;;;;;;33.70;21.30;;;;;;;4.14;89.25;100878.85;106578;1254;99049;-80
2023/10/18 02:18:10;;;;;;;31.00;19.90;;;;;;;4.14;89.30;100879.38;106376;1254;99006;-81
2023/10/18 02:20:56;;;;;;;35.00;21.80;;;;;;;4.10;87.68;100877.08;106437;1254;96574;-82
2023/10/18 02:23:42;;;;;;;29.80;19.10;;;;;;;4.00;86.46;100876.71;106571;1254;97115;-81
2023/10/18 02:26:30;;;;;;;33.80;19.90;;;;;;;3.93;86.54;100878.58;106385;1256;100091;-81
2023/10/18 02:29:17;;;;;;;35.30;21.80;;;;;;;3.88;86.21;100877.40;106436;1254;100386;-82
2023/10/18 02:32:04;;;;;;;37.40;21.10;;;;;;;3.85;86.72;100878.40;106947;1254;99043;-81
2023/10/18 02:34:51;;;;;;;37.60;22.50;;;;;;;3.85;87.23;100876.86;106712;1254;96609;-82
2023/10/18 02:37:37;;;;;;;35.00;20.30;;;;;;;3.83;87.56;100874.73;106845;1260;96653;-81
2023/10/18 02:40:29;;;;;;;40.60;22.20;;;;;;;3.81;87.78;100872.39;106669;1255;100047;-80
2023/10/18 02:43:15;;;;;;;37.60;23.50;;;;;;;3.81;87.89;100867.42;106446;1260;99057;-80
2023/10/18 02:46:00;;;;;;;44.10;25.30;;;;;;;3.80;88.23;100864.16;106299;1254;97707;-81
2023/10/18 02:48:47;;;;;;;38.20;23.50;;;;;;;3.81;88.43;100858.51;106308;1262;96730;-81
2023/10/18 02:51:35;;;;;;;43.00;25.10;;;;;;;3.80;88.28;100849.38;106446;1254;96610;-81
2023/10/18 02:54:24;;;;;;;46.90;23.00;;;;;;;3.78;88.44;100849.90;106646;1254;100847;-82
2023/10/18 02:57:10;;;;;;;35.10;22.10;;;;;;;3.72;87.66;100848.27;106296;1254;99084;-80
2023/10/18 02:59:56;;;;;;;30.60;21.40;;;;;;;3.69;87.65;100846.52;106360;1260;98570;-81
2023/10/18 03:02:42;;;;;;;37.20;22.70;;;;;;;3.65;86.62;100847.93;106307;1258;96513;-81
2023/10/18 03:05:28;;;;;;;41.60;23.50;;;;;;;3.56;86.08;100852.23;106719;1254;97125;-82
2023/10/18 03:08:20;;;;;;;39.80;23.90;;;;;;;3.51;86.15;100851.46;106183;1254;100075;-81
2023/10/18 03:11:05;;;;;;;38.00;22.60;;;;;;;3.49;86.50;100845.85;106231;1259;99093;-81
2023/10/18 03:13:51;;;;;;;37.50;22.30;;;;;;;3.48;86.84;100839.59;106610;1254;97771;-81
2023/10/18 03:19:22;;;;;;;43.70;23.90;;;;;;;3.47;87.48;100836.43;106581;1259;96602;-80
2023/10/18 03:22:09;;;;;;;43.10;24.30;;;;;;;3.48;87.97;100837.61;106576;1254;100092;-80
2023/10/18 03:24:55;;;;;;;42.00;23.60;;;;;;;3.49;88.15;100834.00;106458;1254;99191;-80
2023/10/18 03:27:50;;;;;;;40.20;23.80;;;;;;;3.50;88.30;100828.10;106616;1261;99580;-81
2023/10/18 03:30:44;;;;;;;38.90;23.20;;;;;;;3.51;88.51;100825.20;106491;1254;96520;-81
2023/10/18 03:33:32;;;;;;;42.40;25.50;;;;;;;3.50;88.69;100824.39;106679;1254;97156;-80
2023/10/18 03:36:25;;;;;;;43.10;25.00;;;;;;;3.49;88.64;100828.19;106752;1254;100105;-80
2023/10/18 03:39:13;;;;;;;43.90;25.10;;;;;;;3.48;88.83;100827.23;106458;1262;100432;-81
2023/10/18 03:41:59;;;;;;;43.90;27.00;;;;;;;3.47;89.07;100821.98;106272;1254;97928;-81
2023/10/18 03:44:46;;;;;;;42.30;27.20;;;;;;;3.47;89.14;100813.71;106489;1259;96636;-80
2023/10/18 03:47:36;;;;;;;53.00;27.70;;;;;;;3.47;89.30;100807.36;106453;1254;96613;-80
2023/10/18 03:50:28;;;;;;;39.60;24.80;;;;;;;3.47;89.57;100803.60;106561;1254;100059;-80
2023/10/18 03:53:14;;;;;;;43.10;25.80;;;;;;;3.48;89.58;100805.52;106710;1254;99801;-81
2023/10/18 03:55:59;;;;;;;44.80;27.00;;;;;;;3.48;89.67;100808.33;106321;1259;97827;-81
2023/10/18 03:58:49;;;;;;;44.50;26.30;;;;;;;3.47;89.86;100808.45;106452;1261;95852;-81
2023/10/18 04:01:44;;;;;;;44.20;25.90;;;;;;;3.45;90.07;100804.48;106467;1256;97083;-81
2023/10/18 04:04:44;;;;;;;46.60;26.50;;;;;;;3.45;90.22;100802.07;106461;1255;100062;-79
2023/10/18 04:07:30;;;;;;;37.50;23.80;;;;;;;3.44;90.50;100801.81;106300;1254;100032;-80
2023/10/18 04:10:18;;;;;;;42.40;24.40;;;;;;;3.42;90.65;100801.80;106378;1260;97775;-82
2023/10/18 04:13:05;;;;;;;38.40;23.70;;;;;;;3.41;90.63;100801.16;106294;1262;96830;-81
2023/10/18 04:15:59;;;;;;;38.80;23.40;;;;;;;3.42;90.70;100802.50;106378;1254;96401;-81
2023/10/18 04:18:45;;;;;;;45.90;26.70;;;;;;;3.42;90.62;100794.19;107147;1258;100709;-80
2023/10/18 04:21:31;;;;;;;44.80;26.50;;;;;;;3.42;90.62;100786.98;106504;1254;99079;-81
2023/10/18 04:24:16;;;;;;;46.70;24.90;;;;;;;3.42;90.86;100784.64;106399;1254;97795;-80
2023/10/18 04:27:04;;;;;;;40.00;24.50;;;;;;;3.42;90.77;100785.86;106521;1254;96517;-80
2023/10/18 04:29:55;;;;;;;39.30;23.20;;;;;;;3.43;90.66;100785.25;106525;1256;97134;-80
2023/10/18 04:32:42;;;;;;;43.90;25.60;;;;;;;3.44;90.53;100782.59;106543;1258;100233;-81
2023/10/18 04:35:30;;;;;;;40.40;24.30;;;;;;;3.44;90.58;100778.01;106589;1254;100140;-81
2023/10/18 04:38:23;;;;;;;38.30;23.90;;;;;;;3.43;90.44;100778.95;106335;1259;97798;-80
2023/10/18 04:41:10;;;;;;;37.00;22.90;;;;;;;3.43;90.38;100773.63;106609;1259;96632;-81
2023/10/18 04:46:52;;;;;;;42.80;26.10;;;;;;;3.41;90.26;100778.02;106422;1254;99919;-81
2023/10/18 04:49:38;;;;;;;41.70;24.00;;;;;;;3.40;90.33;100779.69;106536;1259;100306;-83
2023/10/18 04:52:40;;;;;;;42.70;25.40;;;;;;;3.40;90.20;100781.17;106522;1254;97771;-81
2023/10/18 04:55:32;;;;;;;40.00;25.00;;;;;;;3.39;89.93;100785.16;106564;1254;96481;-81
2023/10/18 04:58:19;;;;;;;48.10;26.30;;;;;;;3.36;89.66;100784.28;106852;1256;96493;-81
2023/10/18 05:01:07;;;;;;;44.10;24.40;;;;;;;3.34;89.63;100787.66;106697;1256;101764;-81
2023/10/18 05:03:53;;;;;;;41.10;24.40;;;;;;;3.32;89.51;100789.29;106892;1254;100152;-82
2023/10/18 05:06:42;;;;;;;41.60;23.80;;;;;;;3.29;89.33;100795.51;106533;1254;97718;-82
2023/10/18 05:09:34;;;;;;;41.20;24.10;;;;;;;3.27;89.35;100799.08;106632;1254;96606;-81
2023/10/18 05:17:57;;;;;;;39.70;22.40;;;;;;;3.20;89.48;100809.64;106750;1254;99890;-82
2023/10/18 05:23:32;;;;;;;40.80;23.10;;;;;;;3.18;89.61;100807.84;106654;1254;97731;-80
2023/10/18 05:26:18;;;;;;;41.50;24.50;;;;;;;3.18;89.57;100807.66;106685;1258;97904;-80
2023/10/18 05:29:05;;;;;;;41.90;24.30;;;;;;;3.17;89.61;100807.76;106641;1260;101372;-82
2023/10/18 05:32:06;;;;;;;37.10;22.90;;;;;;;3.17;89.75;100809.89;106879;1254;99384;-81
2023/10/18 05:34:56;;;;;;;41.50;24.80;;;;;;;3.17;89.88;100802.28;106512;1254;98955;-80
2023/10/18 05:37:42;;;;;;;42.30;24.20;;;;;;;3.15;90.05;100801.70;106481;1254;96580;-81
2023/10/18 05:43:29;;;;;;;43.10;24.00;;;;;;;3.16;90.28;100803.23;106430;1259;100025;-81
2023/10/18 05:46:14;;;;;;;39.90;25.00;;;;;;;3.16;90.48;100801.14;106540;1254;99153;-82
2023/10/18 05:49:01;;;;;;;39.00;23.90;;;;;;;3.15;90.84;100796.77;106502;1254;97800;-81
2023/10/18 05:52:49;;;;;;;43.80;24.50;;;;;;;3.17;91.07;100798.40;106322;1262;96629;-80
2023/10/18 05:55:01;;;;;;;41.50;24.70;;;;;;;3.18;91.33;100802.20;105917;1259;97042;-80
2023/10/18 05:57:47;;;;;;;42.80;24.00;;;;;;;3.20;91.44;100803.05;106158;1262;100097;-80
2023/10/18 06:00:35;;;;;;;42.20;24.80;;;;;;;3.23;91.78;100804.39;106211;1258;99232;-80
2023/10/18 06:03:22;;;;;;;44.20;25.90;;;;;;;3.25;91.95;100804.01;106305;1254;97722;-82
2023/10/18 06:06:08;;;;;;;44.00;24.50;;;;;;;3.27;91.96;100802.83;105812;1260;96596;-81
2023/10/18 06:08:57;;;;;;;42.80;24.80;;;;;;;3.27;92.06;100799.06;106106;1254;96514;-81
2023/10/18 06:11:48;;;;;;;46.50;26.00;;;;;;;3.28;92.34;100788.79;106030;1256;100814;-81
2023/10/18 06:14:40;;;;;;;38.10;23.50;;;;;;;3.30;92.50;100786.16;106102;1254;100761;-81
2023/10/18 06:17:26;;;;;;;37.40;22.30;;;;;;;3.31;92.54;100784.58;106130;1254;97833;-79
2023/10/18 06:20:28;;;;;;;40.20;24.70;;;;;;;3.34;92.74;100785.77;105782;1258;96581;-81
2023/10/18 06:23:36;;;;;;;44.80;25.80;;;;;;;3.37;93.18;100785.95;106308;1259;97130;-80
2023/10/18 06:26:28;;;;;;;42.00;25.00;;;;;;;3.43;93.48;100782.82;106645;1254;100892;-81
2023/10/18 06:29:22;;;;;;;38.30;24.80;;;;;;;3.48;93.41;100778.51;106461;1254;99937;-81
2023/10/18 06:32:12;;;;;;;40.10;24.80;;;;;;;3.51;93.61;100779.44;106287;1262;99077;-81
2023/10/18 06:34:58;;;;;;;40.30;25.20;;;;;;;3.56;93.73;100781.22;106281;1261;96490;-80
2023/10/18 06:37:44;;;;;;;44.80;26.70;;;;;;;3.61;94.01;100782.36;106514;1254;97046;-81
2023/10/18 06:43:29;;;;;;;40.00;24.10;;;;;;;3.70;94.46;100781.05;106503;1254;100764;-80
2023/10/18 06:46:28;;;;;;;39.80;24.50;;;;;;;3.75;94.35;100780.77;106542;1254;97750;-79
2023/10/18 06:49:13;;;;;;;36.50;22.50;;;;;;;3.82;94.51;100773.27;106625;1257;97909;-82
2023/10/18 06:52:00;;;;;;;40.10;23.00;;;;;;;3.88;94.76;100770.59;106515;1254;96687;-81
2023/10/18 06:54:45;;;;;;;44.30;23.80;;;;;;;3.93;94.96;100767.47;106459;1254;101381;-81
2023/10/18 06:57:36;;;;;;;40.90;24.10;;;;;;;4.00;95.17;100769.00;106686;1259;99120;-81
2023/10/18 07:00:30;;;;;;;40.60;22.80;;;;;;;4.06;95.38;100764.47;106516;1254;98388;-81
2023/10/18 07:03:24;;;;;;;41.50;24.10;;;;;;;4.14;95.78;100765.66;106260;1254;97207;-81
2023/10/18 07:06:18;;;;;;;37.40;23.10;;;;;;;4.23;95.94;100766.47;106307;1254;97438;-82
2023/10/18 07:09:24;;;;;;;37.20;22.60;;;;;;;4.31;96.02;100767.42;106422;1254;100800;-81
2023/10/18 07:12:17;;;;;;;32.10;20.50;;;;;;;4.41;96.07;100763.96;106307;1254;100484;-82
2023/10/18 07:15:09;;;;;;;35.10;20.90;;;;;;;4.51;96.06;100759.02;106364;1254;97750;-81
2023/10/18 07:17:55;;;;;;;29.10;19.10;;;;;;;4.61;96.15;100758.77;106285;1256;96633;-81
2023/10/18 07:20:41;;;;;;;35.20;20.50;;;;;;;4.71;95.98;100759.35;106754;1254;97141;-81
2023/10/18 07:23:27;;;;;;;37.80;20.40;;;;;;;4.81;96.04;100760.36;106870;1254;101674;-80
2023/10/18 07:26:13;;;;;;;34.50;20.20;;;;;;;4.90;95.79;100756.46;106742;1255;99896;-81
2023/10/18 07:28:59;;;;;;;28.90;19.50;;;;;;;5.00;95.89;100758.73;106470;1258;97754;-80
2023/10/18 07:31:45;;;;;;;32.90;20.00;;;;;;;5.09;95.89;100759.08;106212;1254;97925;-80
2023/10/18 07:34:32;;;;;;;30.90;19.10;;;;;;;5.18;95.82;100758.74;106284;1277;97737;-80
2023/10/18 07:37:17;;;;;;;31.20;20.40;;;;;;;5.27;95.93;100757.10;106389;1254;100014;-82
2023/10/18 07:40:08;;;;;;;32.60;18.60;;;;;;;5.36;95.69;100757.27;106583;1256;99179;-81
2023/10/18 07:42:53;;;;;;;29.50;18.00;;;;;;;5.45;95.93;100757.06;106311;1254;98222;-81
2023/10/18 07:45:39;;;;;;;33.80;17.30;;;;;;;5.56;95.70;100760.09;106368;1259;96523;-81
2023/10/18 07:48:27;;;;;;;29.80;16.90;;;;;;;5.66;95.46;100758.91;106471;1254;97206;-80
2023/10/18 07:54:26;;;;;;;25.50;15.30;;;;;;;5.86;95.13;100758.65;106223;1258;100701;-81
2023/10/18 07:57:18;;;;;;;23.30;14.80;;;;;;;5.97;95.05;100756.19;106583;1254;99299;-80
2023/10/18 08:03:23;;;;;;;22.90;13.50;;;;;;;6.20;94.17;100758.63;106050;1259;97115;-84
2023/10/18 08:06:26;;;;;;;25.80;14.10;;;;;;;6.30;94.01;100756.20;106134;1254;100792;-82
2023/10/18 08:09:13;;;;;;;21.50;13.00;;;;;;;6.40;93.86;100757.30;106105;1254;99156;-81
2023/10/18 08:12:18;;;;;;;22.40;12.60;;;;;;;6.50;93.80;100754.64;106121;1254;99013;-83
2023/10/18 08:15:13;;;;;;;22.90;12.10;;;;;;;6.61;93.50;100752.27;106544;1254;96612;-86
2023/10/18 08:18:00;;;;;;;17.00;10.90;;;;;;;6.70;92.67;100751.95;105985;1254;97484;-85
2023/10/18 08:23:35;;;;;;;15.80;10.50;;;;;;;6.89;92.06;100741.34;106598;1256;99758;-84
2023/10/18 08:26:20;;;;;;;17.00;11.10;;;;;;;6.99;91.29;100735.98;106109;1254;107710;-86
2023/10/18 08:29:07;;;;;;;19.80;11.10;;;;;;;7.07;90.85;100736.25;106299;1259;96601;-88
2023/10/18 08:31:55;;;;;;;17.70;10.60;;;;;;;7.15;90.87;100733.63;106112;1254;206240;-84
2023/10/18 08:34:43;;;;;;;17.70;10.40;;;;;;;7.24;90.94;100734.78;106631;1256;100678;-86
2023/10/18 08:37:29;;;;;;;18.30;11.20;;;;;;;7.32;89.99;100735.67;106462;1257;100517;-88
2023/10/18 08:40:27;;;;;;;19.50;12.30;;;;;;;7.40;89.96;100737.69;106451;1259;97865;-86
2023/10/18 08:43:32;;;;;;;18.60;10.80;;;;;;;7.49;89.43;100737.53;106176;1254;96572;-86
2023/10/18 08:46:24;;;;;;;19.80;10.40;;;;;;;7.57;88.89;100731.34;106475;1259;96427;-87
2023/10/18 08:49:13;;;;;;;18.20;10.60;;;;;;;7.65;88.21;100729.98;106156;1259;101272;-86
2023/10/18 08:52:20;;;;;;;15.80;10.50;;;;;;;7.73;88.12;100725.86;106302;1254;100542;-85
2023/10/18 08:55:19;;;;;;;21.20;12.60;;;;;;;7.83;88.19;100727.12;106436;1261;99117;-86
2023/10/18 08:58:08;;;;;;;22.10;11.90;;;;;;;7.93;87.99;100723.36;106212;1255;96593;-82
2023/10/18 09:01:02;;;;;;;20.40;9.90;;;;;;;8.01;87.50;100724.59;106359;1263;97132;-86
2023/10/18 09:03:55;;;;;;;15.90;10.30;;;;;;;8.11;86.91;100727.45;106202;1254;100811;-86
2023/10/18 09:06:41;;;;;;;19.50;9.50;;;;;;;8.17;86.28;100727.26;106291;1254;101325;-84
2023/10/18 09:09:35;;;;;;;19.30;9.50;;;;;;;8.23;85.97;100728.36;106638;1267;99111;-86
2023/10/18 09:13:29;;;;;;;13.60;8.60;;;;;;;8.30;85.68;100726.88;106681;1262;96438;-84
2023/10/18 09:16:19;;;;;;;14.90;9.10;;;;;;;8.37;85.10;100721.46;106210;1259;97103;-83
2023/10/18 09:18:54;;;;;;;17.50;10.10;;;;;;;8.45;85.39;100719.54;106056;1254;101254;-83
2023/10/18 09:24:43;;;;;;;11.50;7.20;;;;;;;8.65;84.47;100718.35;106384;1259;97813;-87
2023/10/18 09:27:29;;;;;;;11.40;7.10;;;;;;;8.74;83.87;100714.48;106252;1255;96662;-86
2023/10/18 09:30:18;;;;;;;12.00;7.00;;;;;;;8.82;83.42;100711.09;106232;1255;97183;-86
2023/10/18 09:33:04;;;;;;;10.90;7.20;;;;;;;8.90;83.12;100711.45;106338;1259;100067;-85
2023/10/18 09:35:51;;;;;;;9.90;6.40;;;;;;;8.97;82.73;100709.16;106227;1254;99179;-86
2023/10/18 09:38:48;;;;;;;13.70;7.00;;;;;;;9.04;82.24;100705.15;105905;1254;100119;-84
2023/10/18 09:41:35;;;;;;;11.30;6.80;;;;;;;9.10;81.67;100708.52;106070;1262;96597;-81
2023/10/18 09:44:20;;;;;;;12.00;6.70;;;;;;;9.15;81.87;100714.32;106512;1258;97065;-79
2023/10/18 09:47:05;;;;;;;9.70;5.90;;;;;;;9.19;81.07;100719.20;106373;1254;101300;-80
2023/10/18 09:49:54;;;;;;;8.90;5.80;;;;;;;9.22;80.21;100722.80;106609;1254;100333;-80
2023/10/18 09:52:56;;;;;;;11.10;6.50;;;;;;;9.25;80.31;100719.60;106468;1258;97912;-79
2023/10/18 09:55:42;;;;;;;14.10;5.30;;;;;;;9.31;80.29;100719.31;106610;1254;96545;-80
2023/10/18 09:58:33;;;;;;;9.60;5.10;;;;;;;9.38;79.69;100718.70;107843;1254;96840;-80
2023/10/18 10:01:55;;;;;;;;;;;;;;;9.43;79.02;100716.13;106615;1257;100006;-80
2023/10/18 10:04:38;;;;;;;5.60;3.60;;;;;;;9.47;78.53;100715.55;106235;1254;99897;-79
2023/10/18 10:07:41;;;;;;;7.80;4.80;;;;;;;9.52;77.97;100715.84;105909;1259;99081;-81
2023/10/18 10:10:43;;;;;;;9.80;5.00;;;;;;;9.56;77.63;100709.80;105978;1254;96569;-79
2023/10/18 10:13:29;;;;;;;7.90;4.40;;;;;;;9.62;77.66;100705.92;106122;1254;96523;-80
2023/10/18 10:16:20;;;;;;;7.10;4.40;;;;;;;9.68;77.69;100700.02;105917;1259;99968;-78
2023/10/18 10:19:11;;;;;;;9.50;4.60;;;;;;;9.75;77.69;100699.52;105993;1257;99044;-79
2023/10/18 10:22:04;;;;;;;;;;;;;;;9.82;77.39;100702.25;105912;1254;97761;-80
2023/10/18 10:25:05;;;;;;;7.70;4.00;;;;;;;9.87;77.29;100705.96;106662;1259;97249;-79
2023/10/18 10:27:53;;;;;;;8.60;4.10;;;;;;;9.94;77.23;100700.65;106495;1254;97148;-82
2023/10/18 10:30:43;;;;;;;7.00;4.40;;;;;;;10.00;76.74;100701.90;106331;1255;100864;-81
2023/10/18 10:34:06;;;;;;;9.30;4.10;;;;;;;10.02;75.80;100701.85;106592;1255;100308;-80
2023/10/18 10:37:20;;;;;;;8.40;4.00;;;;;;;10.04;75.66;100696.55;106218;1254;99098;-79
2023/10/18 10:43:12;;;;;;;6.40;4.10;;;;;;;10.13;75.07;100691.69;105981;1258;97131;-79
2023/10/18 10:45:58;;;;;;;6.60;3.90;;;;;;;10.18;74.55;100688.52;105770;1259;101095;-79
2023/10/18 10:48:46;;;;;;;10.10;5.20;;;;;;;10.23;74.94;100685.60;106016;1255;99206;-80
2023/10/18 10:51:37;;;;;;;6.20;4.20;;;;;;;10.29;75.04;100686.84;105677;1255;98435;-79
2023/10/18 10:54:26;;;;;;;7.30;4.40;;;;;;;10.36;74.28;100677.31;105568;1256;96616;-78
2023/10/18 10:57:15;;;;;;;4.80;3.70;;;;;;;10.40;73.91;100674.48;108570;1254;94134;-80
2023/10/18 11:00:22;;;;;;;5.20;3.10;;;;;;;10.47;73.94;100674.83;107290;1254;100110;-80
2023/10/18 11:03:30;;;;;;;7.10;3.40;;;;;;;10.53;73.28;100668.58;106791;1258;99835;-80
2023/10/18 11:06:32;;;;;;;7.60;3.90;;;;;;;10.58;73.51;100660.64;106460;1254;99019;-80
2023/10/18 11:09:18;;;;;;;10.90;5.40;;;;;;;10.64;73.07;100653.80;106198;1262;96579;-81
2023/10/18 11:12:08;;;;;;;9.30;4.30;;;;;;;10.70;73.32;100643.76;106548;1258;97060;-80
2023/10/18 11:14:53;;;;;;;7.00;4.20;;;;;;;10.75;73.00;100640.08;106540;1256;100014;-80
2023/10/18 11:17:42;;;;;;;10.20;5.30;;;;;;;10.79;71.96;100639.09;106056;1255;99772;-80
2023/10/18 11:20:30;;;;;;;8.30;4.50;;;;;;;10.80;71.74;100634.89;106890;1254;99220;-81
2023/10/18 11:23:15;;;;;;;6.70;4.40;;;;;;;10.83;71.94;100634.36;106543;1257;97138;-81
2023/10/18 11:26:08;;;;;;;7.30;4.10;;;;;;;10.89;72.02;100632.89;106638;1254;96532;-79
2023/10/18 11:28:59;;;;;;;7.00;4.90;;;;;;;10.93;71.22;100635.58;107132;1258;101268;-81
2023/10/18 11:31:44;;;;;;;8.40;4.80;;;;;;;10.95;70.69;100638.00;106485;1257;99109;-79
2023/10/18 11:34:29;;;;;;;9.40;4.80;;;;;;;10.98;70.64;100637.51;106057;1256;97761;-80
2023/10/18 11:37:34;;;;;;;10.60;4.60;;;;;;;11.00;70.39;100635.44;106476;1259;97922;-80
2023/10/18 11:40:21;;;;;;;7.50;4.80;;;;;;;11.04;70.75;100634.61;106313;1254;97154;-79
2023/10/18 11:43:10;;;;;;;10.80;5.70;;;;;;;11.10;71.09;100630.11;106060;1259;100099;-81
2023/10/18 11:46:13;;;;;;;9.10;5.20;;;;;;;11.16;70.52;100634.13;106575;1256;99864;-80
2023/10/18 11:48:59;;;;;;;8.80;5.10;;;;;;;11.21;69.85;100632.72;106452;1257;99100;-80
2023/10/18 11:51:48;;;;;;;6.70;4.70;;;;;;;11.25;69.94;100627.90;106638;1256;96594;-86
2023/10/18 11:55:09;;;;;;;8.20;5.80;;;;;;;11.29;70.02;100627.70;107357;1257;96393;-91
2023/10/18 11:58:20;;;;;;;7.30;5.20;;;;;;;11.34;69.69;100622.39;106877;1255;110962;-86
2023/10/18 12:01:33;;;;;;;9.10;4.60;;;;;;;11.40;70.07;100619.00;106540;1258;99124;-83
2023/10/18 12:04:27;;;;;;;7.10;4.10;;;;;;;11.50;69.87;100615.58;106806;1259;98989;-88
2023/10/18 12:07:14;;;;;;;7.00;4.70;;;;;;;11.59;69.26;100609.44;106257;1254;96531;-86
2023/10/18 12:10:01;;;;;;;9.30;5.10;;;;;;;11.63;68.89;100608.84;106511;1257;96603;-87
2023/10/18 12:12:51;;;;;;;8.10;5.50;;;;;;;11.67;68.93;100599.69;106359;1257;101330;-88
2023/10/18 12:15:38;;;;;;;9.90;5.00;;;;;;;11.72;68.57;100591.64;106423;1256;107502;-87
2023/10/18 12:18:24;;;;;;;7.00;4.00;;;;;;;11.81;68.81;100591.39;106757;1259;99087;-87
2023/10/18 12:21:10;;;;;;;7.90;4.00;;;;;;;11.91;68.86;100583.98;106122;1260;96700;-83
2023/10/18 12:23:57;;;;;;;7.90;4.20;;;;;;;11.95;68.36;100584.20;106415;1254;97775;-85
2023/10/18 12:26:45;;;;;;;8.60;4.50;;;;;;;11.94;67.92;100577.58;105814;1257;100105;-84
2023/10/18 12:29:31;;;;;;;6.20;4.40;;;;;;;11.90;67.45;100576.44;106061;1257;99990;-84
2023/10/18 12:32:19;;;;;;;9.20;4.50;;;;;;;11.87;67.90;100579.52;106086;1254;99024;-88
2023/10/18 12:35:12;;;;;;;9.40;4.70;;;;;;;11.83;67.69;100574.60;106874;1262;95935;-88
2023/10/18 12:37:58;;;;;;;6.70;4.30;;;;;;;11.77;67.33;100573.29;106730;1257;97065;-87
2023/10/18 12:40:58;;;;;;;7.00;4.50;;;;;;;11.77;67.17;100572.45;106712;1257;100052;-87
2023/10/18 12:43:44;;;;;;;6.20;3.80;;;;;;;11.75;67.06;100568.89;106422;1262;99183;-85
2023/10/18 12:46:30;;;;;;;8.70;4.60;;;;;;;11.77;66.85;100564.08;106183;1256;97800;-79
2023/10/18 12:49:22;;;;;;;6.30;3.60;;;;;;;11.80;66.93;100564.34;106517;1257;97764;-87
2023/10/18 12:52:39;;;;;;;7.20;4.00;;;;;;;11.85;66.85;100561.08;106589;1262;97150;-81
2023/10/18 12:55:36;;;;;;;5.60;3.80;;;;;;;11.90;66.84;100561.48;106871;1259;100046;-81
2023/10/18 12:58:28;;;;;;;4.90;3.30;;;;;;;11.91;66.51;100559.84;106884;1256;100304;-80
2023/10/18 13:01:14;;;;;;;13.50;9.90;;;;;;;11.90;65.96;100559.99;107066;1254;98898;-81
2023/10/18 13:04:00;;;;;;;6.30;4.60;;;;;;;11.91;66.21;100558.68;106984;1256;96051;-82
2023/10/18 13:06:46;;;;;;;6.00;3.80;;;;;;;11.92;65.93;100557.70;106712;1258;96555;-82
2023/10/18 13:09:31;;;;;;;6.90;3.20;;;;;;;11.94;65.78;100555.23;106644;1259;101302;-82
2023/10/18 13:12:17;;;;;;;6.60;3.60;;;;;;;11.95;65.57;100552.60;106680;1257;100552;-81
2023/10/18 13:15:07;;;;;;;9.30;3.90;;;;;;;11.95;65.55;100549.64;106754;1254;98807;-81
2023/10/18 13:17:53;;;;;;;10.30;4.90;;;;;;;11.96;65.77;100545.39;106931;1257;96753;-81
2023/10/18 13:20:43;;;;;;;8.00;3.80;;;;;;;11.99;65.95;100545.35;106648;1254;97118;-82
2023/10/18 13:23:29;;;;;;;7.90;4.20;;;;;;;12.01;65.66;100541.04;106480;1258;99979;-90
2023/10/18 13:26:15;;;;;;;7.10;3.60;;;;;;;12.01;65.44;100536.33;106782;1257;99168;-90
2023/10/18 13:29:02;;;;;;;6.60;3.80;;;;;;;12.02;65.33;100530.76;106724;1255;98917;-91
2023/10/18 13:31:57;;;;;;;9.40;4.80;;;;;;;12.00;65.07;100529.16;106586;1257;96625;-90